sensor_id;sensor_type;location;lat;lon;timestamp;pressure;altitude;pressure_sealevel;temperature;humidity
51526;BME280;37611;51.794;21.590;2023-12-20T00:03:04;99216.58;;;5.23;100.00
51526;BME280;37611;51.794;21.590;2023-12-20T00:07:06;99210.73;;;5.18;100.00
51526;BME280;37611;51.794;21.590;2023-12-20T00:11:08;99213.66;;;5.17;100.00
51526;BME280;37611;51.794;21.590;2023-12-20T00:15:09;99212.71;;;5.16;100.00
51526;BME280;37611;51.794;21.590;2023-12-20T00:19:11;99211.48;;;5.16;100.00
51526;BME280;37611;51.794;21.590;2023-12-20T00:23:13;99204.54;;;5.16;100.00
51526;BME280;37611;51.794;21.590;2023-12-20T00:27:14;99208.10;;;5.17;100.00
51526;BME280;37611;51.794;21.590;2023-12-20T00:31:16;99194.65;;;5.14;100.00
51526;BME280;37611;51.794;21.590;2023-12-20T00:35:18;99191.77;;;5.07;100.00
51526;BME280;37611;51.794;21.590;2023-12-20T00:39:20;99187.73;;;5.06;100.00
51526;BME280;37611;51.794;21.590;2023-12-20T00:43:22;99186.48;;;5.06;100.00
51526;BME280;37611;51.794;21.590;2023-12-20T00:47:23;99180.75;;;5.06;100.00
51526;BME280;37611;51.794;21.590;2023-12-20T00:51:25;99182.51;;;5.02;100.00
51526;BME280;37611;51.794;21.590;2023-12-20T00:55:27;99180.96;;;5.00;100.00
51526;BME280;37611;51.794;21.590;2023-12-20T00:59:29;99175.34;;;4.99;100.00
51526;BME280;37611;51.794;21.590;2023-12-20T01:03:30;99164.71;;;4.99;100.00
51526;BME280;37611;51.794;21.590;2023-12-20T01:07:32;99162.54;;;4.99;100.00
51526;BME280;37611;51.794;21.590;2023-12-20T01:11:34;99158.13;;;4.98;100.00
51526;BME280;37611;51.794;21.590;2023-12-20T01:15:36;99156.20;;;4.96;100.00
51526;BME280;37611;51.794;21.590;2023-12-20T01:19:38;99153.92;;;4.96;100.00
51526;BME280;37611;51.794;21.590;2023-12-20T01:23:39;99150.77;;;4.97;100.00
51526;BME280;37611;51.794;21.590;2023-12-20T01:27:41;99150.44;;;4.96;100.00
51526;BME280;37611;51.794;21.590;2023-12-20T01:31:43;99142.42;;;4.95;100.00
51526;BME280;37611;51.794;21.590;2023-12-20T01:35:45;99131.86;;;4.97;100.00
51526;BME280;37611;51.794;21.590;2023-12-20T01:39:47;99127.61;;;4.97;100.00
51526;BME280;37611;51.794;21.590;2023-12-20T01:43:49;99132.13;;;4.97;100.00
51526;BME280;37611;51.794;21.590;2023-12-20T01:47:51;99121.55;;;4.97;100.00
51526;BME280;37611;51.794;21.590;2023-12-20T01:51:56;99117.70;;;4.98;100.00
51526;BME280;37611;51.794;21.590;2023-12-20T01:55:58;99110.44;;;4.99;100.00
51526;BME280;37611;51.794;21.590;2023-12-20T02:00:00;99101.60;;;4.99;100.00
51526;BME280;37611;51.794;21.590;2023-12-20T02:04:02;99098.12;;;4.97;100.00
51526;BME280;37611;51.794;21.590;2023-12-20T02:08:04;99095.73;;;4.97;100.00
51526;BME280;37611;51.794;21.590;2023-12-20T02:12:07;99094.81;;;4.99;100.00
51526;BME280;37611;51.794;21.590;2023-12-20T02:16:09;99092.27;;;4.99;100.00
51526;BME280;37611;51.794;21.590;2023-12-20T02:20:11;99085.66;;;4.99;100.00
51526;BME280;37611;51.794;21.590;2023-12-20T02:24:12;99080.63;;;4.99;100.00
51526;BME280;37611;51.794;21.590;2023-12-20T02:28:14;99086.54;;;4.99;100.00
51526;BME280;37611;51.794;21.590;2023-12-20T02:32:20;99085.29;;;4.97;100.00
51526;BME280;37611;51.794;21.590;2023-12-20T02:36:23;99080.58;;;4.98;100.00
51526;BME280;37611;51.794;21.590;2023-12-20T02:40:24;99078.23;;;4.98;100.00
51526;BME280;37611;51.794;21.590;2023-12-20T02:44:26;99066.96;;;5.00;100.00
51526;BME280;37611;51.794;21.590;2023-12-20T02:48:28;99069.45;;;5.03;100.00
51526;BME280;37611;51.794;21.590;2023-12-20T02:52:30;99065.46;;;5.05;100.00
51526;BME280;37611;51.794;21.590;2023-12-20T02:56:34;99070.04;;;5.06;100.00
51526;BME280;37611;51.794;21.590;2023-12-20T03:00:36;99060.05;;;5.06;100.00
51526;BME280;37611;51.794;21.590;2023-12-20T03:04:38;99058.73;;;5.06;100.00
51526;BME280;37611;51.794;21.590;2023-12-20T03:08:40;99053.01;;;5.05;100.00
51526;BME280;37611;51.794;21.590;2023-12-20T03:12:48;99056.13;;;5.07;100.00
51526;BME280;37611;51.794;21.590;2023-12-20T03:16:50;99059.34;;;5.09;100.00
51526;BME280;37611;51.794;21.590;2023-12-20T03:20:52;99054.85;;;5.07;100.00
51526;BME280;37611;51.794;21.590;2023-12-20T03:24:56;99050.69;;;5.07;100.00
51526;BME280;37611;51.794;21.590;2023-12-20T03:28:58;99048.03;;;5.06;100.00
51526;BME280;37611;51.794;21.590;2023-12-20T03:33:00;99044.19;;;5.06;100.00
51526;BME280;37611;51.794;21.590;2023-12-20T03:37:02;99049.05;;;5.04;100.00
51526;BME280;37611;51.794;21.590;2023-12-20T03:41:04;99044.84;;;5.05;100.00
51526;BME280;37611;51.794;21.590;2023-12-20T03:45:06;99050.09;;;5.06;100.00
51526;BME280;37611;51.794;21.590;2023-12-20T03:49:08;99052.40;;;5.08;100.00
51526;BME280;37611;51.794;21.590;2023-12-20T03:53:10;99053.27;;;5.06;100.00
51526;BME280;37611;51.794;21.590;2023-12-20T03:57:12;99049.71;;;5.07;100.00
51526;BME280;37611;51.794;21.590;2023-12-20T04:01:13;99046.42;;;5.07;100.00
51526;BME280;37611;51.794;21.590;2023-12-20T04:05:15;99047.04;;;5.09;100.00
51526;BME280;37611;51.794;21.590;2023-12-20T04:09:17;99045.35;;;5.11;100.00
51526;BME280;37611;51.794;21.590;2023-12-20T04:13:19;99039.70;;;5.10;100.00
51526;BME280;37611;51.794;21.590;2023-12-20T04:17:20;99034.91;;;5.11;100.00
51526;BME280;37611;51.794;21.590;2023-12-20T04:21:24;99030.73;;;5.11;100.00
51526;BME280;37611;51.794;21.590;2023-12-20T04:25:27;99033.20;;;5.12;100.00
51526;BME280;37611;51.794;21.590;2023-12-20T04:29:29;99038.12;;;5.14;100.00
51526;BME280;37611;51.794;21.590;2023-12-20T04:33:30;99033.93;;;5.14;100.00
51526;BME280;37611;51.794;21.590;2023-12-20T04:37:32;99039.47;;;5.14;100.00
51526;BME280;37611;51.794;21.590;2023-12-20T04:41:34;99038.90;;;5.15;100.00
51526;BME280;37611;51.794;21.590;2023-12-20T04:45:36;99032.73;;;5.16;100.00
51526;BME280;37611;51.794;21.590;2023-12-20T04:49:38;99033.96;;;5.13;100.00
51526;BME280;37611;51.794;21.590;2023-12-20T04:53:40;99039.34;;;5.10;100.00
51526;BME280;37611;51.794;21.590;2023-12-20T04:57:41;99037.00;;;5.09;100.00
51526;BME280;37611;51.794;21.590;2023-12-20T05:01:44;99031.48;;;5.07;100.00
51526;BME280;37611;51.794;21.590;2023-12-20T05:05:46;99028.76;;;5.06;100.00
51526;BME280;37611;51.794;21.590;2023-12-20T05:09:47;99027.15;;;5.07;100.00
51526;BME280;37611;51.794;21.590;2023-12-20T05:13:50;99020.00;;;5.07;100.00
51526;BME280;37611;51.794;21.590;2023-12-20T05:17:51;99017.13;;;5.08;100.00
51526;BME280;37611;51.794;21.590;2023-12-20T05:21:53;99019.44;;;5.06;100.00
51526;BME280;37611;51.794;21.590;2023-12-20T05:25:55;99020.64;;;5.04;100.00
51526;BME280;37611;51.794;21.590;2023-12-20T05:29:57;99020.96;;;5.01;100.00
51526;BME280;37611;51.794;21.590;2023-12-20T05:33:59;99017.61;;;4.99;100.00
51526;BME280;37611;51.794;21.590;2023-12-20T05:38:00;99021.58;;;4.99;100.00
51526;BME280;37611;51.794;21.590;2023-12-20T05:42:02;99022.44;;;4.99;100.00
51526;BME280;37611;51.794;21.590;2023-12-20T05:46:04;99016.66;;;5.00;100.00
51526;BME280;37611;51.794;21.590;2023-12-20T05:50:06;99021.48;;;5.00;100.00
51526;BME280;37611;51.794;21.590;2023-12-20T05:54:09;99016.46;;;5.04;100.00
51526;BME280;37611;51.794;21.590;2023-12-20T05:58:11;99012.02;;;5.05;100.00
51526;BME280;37611;51.794;21.590;2023-12-20T06:02:13;99007.70;;;5.01;100.00
51526;BME280;37611;51.794;21.590;2023-12-20T06:06:14;99006.75;;;5.01;100.00
51526;BME280;37611;51.794;21.590;2023-12-20T06:10:16;99008.90;;;5.00;100.00
51526;BME280;37611;51.794;21.590;2023-12-20T06:14:18;99012.16;;;4.98;100.00
51526;BME280;37611;51.794;21.590;2023-12-20T06:18:20;99011.77;;;4.98;100.00
51526;BME280;37611;51.794;21.590;2023-12-20T06:22:22;99011.77;;;4.98;100.00
51526;BME280;37611;51.794;21.590;2023-12-20T06:26:24;99009.90;;;5.00;100.00
51526;BME280;37611;51.794;21.590;2023-12-20T06:30:26;99010.92;;;4.98;100.00
51526;BME280;37611;51.794;21.590;2023-12-20T06:34:28;99014.25;;;5.00;100.00
51526;BME280;37611;51.794;21.590;2023-12-20T06:38:30;99013.69;;;5.00;100.00
51526;BME280;37611;51.794;21.590;2023-12-20T06:42:32;99012.38;;;5.01;100.00
51526;BME280;37611;51.794;21.590;2023-12-20T06:46:34;99009.13;;;5.01;100.00
51526;BME280;37611;51.794;21.590;2023-12-20T06:50:36;99010.85;;;5.01;100.00
51526;BME280;37611;51.794;21.590;2023-12-20T06:54:41;99012.77;;;5.01;100.00
51526;BME280;37611;51.794;21.590;2023-12-20T06:58:43;99011.73;;;5.01;100.00
51526;BME280;37611;51.794;21.590;2023-12-20T07:02:45;99008.45;;;5.04;100.00
51526;BME280;37611;51.794;21.590;2023-12-20T07:06:48;99005.83;;;5.05;100.00
51526;BME280;37611;51.794;21.590;2023-12-20T07:10:50;99008.27;;;5.03;100.00
51526;BME280;37611;51.794;21.590;2023-12-20T07:14:51;99011.08;;;5.01;100.00
51526;BME280;37611;51.794;21.590;2023-12-20T07:18:53;99010.29;;;4.99;100.00
51526;BME280;37611;51.794;21.590;2023-12-20T07:22:55;99004.91;;;4.98;100.00
51526;BME280;37611;51.794;21.590;2023-12-20T07:26:59;99007.48;;;4.98;100.00
51526;BME280;37611;51.794;21.590;2023-12-20T07:31:01;99010.04;;;4.99;100.00
51526;BME280;37611;51.794;21.590;2023-12-20T07:35:03;99010.48;;;4.96;100.00
51526;BME280;37611;51.794;21.590;2023-12-20T07:39:05;99007.21;;;4.95;100.00
51526;BME280;37611;51.794;21.590;2023-12-20T07:43:06;99006.88;;;4.93;100.00
51526;BME280;37611;51.794;21.590;2023-12-20T07:47:08;99009.05;;;4.96;100.00
51526;BME280;37611;51.794;21.590;2023-12-20T07:51:10;99016.06;;;4.97;100.00
51526;BME280;37611;51.794;21.590;2023-12-20T07:55:12;99017.20;;;4.98;100.00
51526;BME280;37611;51.794;21.590;2023-12-20T07:59:13;99017.22;;;4.96;100.00
51526;BME280;37611;51.794;21.590;2023-12-20T08:03:15;99018.17;;;4.93;100.00
51526;BME280;37611;51.794;21.590;2023-12-20T08:07:17;99019.66;;;4.92;100.00
51526;BME280;37611;51.794;21.590;2023-12-20T08:11:19;99019.39;;;4.93;100.00
51526;BME280;37611;51.794;21.590;2023-12-20T08:15:22;99015.71;;;4.94;100.00
51526;BME280;37611;51.794;21.590;2023-12-20T08:19:23;99015.48;;;4.92;100.00
51526;BME280;37611;51.794;21.590;2023-12-20T08:23:25;99010.46;;;4.92;100.00
51526;BME280;37611;51.794;21.590;2023-12-20T08:27:27;99010.57;;;4.91;100.00
51526;BME280;37611;51.794;21.590;2023-12-20T08:31:29;99014.05;;;4.91;100.00
51526;BME280;37611;51.794;21.590;2023-12-20T08:35:31;99015.31;;;4.92;100.00
51526;BME280;37611;51.794;21.590;2023-12-20T08:39:32;99017.33;;;4.93;100.00
51526;BME280;37611;51.794;21.590;2023-12-20T08:43:35;99019.85;;;4.96;100.00
51526;BME280;37611;51.794;21.590;2023-12-20T08:47:37;99019.52;;;4.96;100.00
51526;BME280;37611;51.794;21.590;2023-12-20T08:51:39;99019.87;;;4.97;100.00
51526;BME280;37611;51.794;21.590;2023-12-20T08:55:42;99020.14;;;4.98;100.00
51526;BME280;37611;51.794;21.590;2023-12-20T08:59:44;99016.88;;;4.98;100.00
51526;BME280;37611;51.794;21.590;2023-12-20T09:03:46;99010.75;;;4.96;100.00
51526;BME280;37611;51.794;21.590;2023-12-20T09:07:48;99006.48;;;4.92;100.00
51526;BME280;37611;51.794;21.590;2023-12-20T09:11:49;99005.48;;;4.89;100.00
51526;BME280;37611;51.794;21.590;2023-12-20T09:15:52;98999.23;;;4.89;100.00
51526;BME280;37611;51.794;21.590;2023-12-20T09:19:54;98999.16;;;4.86;100.00
51526;BME280;37611;51.794;21.590;2023-12-20T09:23:56;98990.25;;;4.87;100.00
51526;BME280;37611;51.794;21.590;2023-12-20T09:27:58;98987.88;;;4.87;100.00
51526;BME280;37611;51.794;21.590;2023-12-20T09:31:59;98981.38;;;4.89;100.00
51526;BME280;37611;51.794;21.590;2023-12-20T09:36:01;98978.27;;;4.87;100.00
51526;BME280;37611;51.794;21.590;2023-12-20T09:40:03;98975.36;;;4.85;100.00
51526;BME280;37611;51.794;21.590;2023-12-20T09:44:07;98969.98;;;4.87;100.00
51526;BME280;37611;51.794;21.590;2023-12-20T09:48:10;98962.91;;;4.85;100.00
51526;BME280;37611;51.794;21.590;2023-12-20T09:52:14;98962.42;;;4.86;100.00
51526;BME280;37611;51.794;21.590;2023-12-20T09:56:17;98952.52;;;4.88;100.00
51526;BME280;37611;51.794;21.590;2023-12-20T10:00:19;98953.60;;;4.89;100.00
51526;BME280;37611;51.794;21.590;2023-12-20T10:04:21;98951.91;;;4.89;100.00
51526;BME280;37611;51.794;21.590;2023-12-20T10:08:24;98951.30;;;4.90;100.00
51526;BME280;37611;51.794;21.590;2023-12-20T10:12:26;98951.77;;;4.91;100.00
51526;BME280;37611;51.794;21.590;2023-12-20T10:16:28;98944.45;;;4.93;100.00
51526;BME280;37611;51.794;21.590;2023-12-20T10:20:31;98946.58;;;4.90;100.00
51526;BME280;37611;51.794;21.590;2023-12-20T10:24:33;98946.24;;;4.89;100.00
51526;BME280;37611;51.794;21.590;2023-12-20T10:28:34;98942.81;;;4.88;100.00
51526;BME280;37611;51.794;21.590;2023-12-20T10:32:37;98936.92;;;4.84;100.00
51526;BME280;37611;51.794;21.590;2023-12-20T10:36:39;98934.32;;;4.86;100.00
51526;BME280;37611;51.794;21.590;2023-12-20T10:40:41;98930.02;;;4.84;100.00
51526;BME280;37611;51.794;21.590;2023-12-20T10:44:43;98923.64;;;4.82;100.00
51526;BME280;37611;51.794;21.590;2023-12-20T10:48:45;98917.17;;;4.77;100.00
51526;BME280;37611;51.794;21.590;2023-12-20T10:52:48;98917.90;;;4.76;100.00
51526;BME280;37611;51.794;21.590;2023-12-20T10:56:58;98909.50;;;4.81;100.00
51526;BME280;37611;51.794;21.590;2023-12-20T11:01:00;98908.80;;;4.82;100.00
51526;BME280;37611;51.794;21.590;2023-12-20T11:13:23;98900.13;;;4.84;100.00
51526;BME280;37611;51.794;21.590;2023-12-20T11:17:28;98896.44;;;4.85;100.00
51526;BME280;37611;51.794;21.590;2023-12-20T11:21:30;98898.63;;;4.82;100.00
51526;BME280;37611;51.794;21.590;2023-12-20T11:25:56;98900.23;;;4.80;100.00
51526;BME280;37611;51.794;21.590;2023-12-20T11:30:03;98898.77;;;4.77;100.00
51526;BME280;37611;51.794;21.590;2023-12-20T11:34:14;98892.65;;;4.75;100.00
51526;BME280;37611;51.794;21.590;2023-12-20T11:38:20;98885.55;;;4.72;100.00
51526;BME280;37611;51.794;21.590;2023-12-20T11:42:22;98874.46;;;4.70;100.00
51526;BME280;37611;51.794;21.590;2023-12-20T11:46:23;98875.22;;;4.67;100.00
51526;BME280;37611;51.794;21.590;2023-12-20T11:50:25;98868.77;;;4.67;100.00
51526;BME280;37611;51.794;21.590;2023-12-20T11:54:27;98867.52;;;4.68;100.00
51526;BME280;37611;51.794;21.590;2023-12-20T11:58:32;98865.53;;;4.70;100.00
51526;BME280;37611;51.794;21.590;2023-12-20T12:02:34;98863.45;;;4.72;100.00
51526;BME280;37611;51.794;21.590;2023-12-20T12:06:36;98860.52;;;4.72;100.00
51526;BME280;37611;51.794;21.590;2023-12-20T12:10:37;98854.01;;;4.70;100.00
51526;BME280;37611;51.794;21.590;2023-12-20T12:14:40;98846.27;;;4.69;100.00
51526;BME280;37611;51.794;21.590;2023-12-20T12:18:42;98843.36;;;4.68;100.00
51526;BME280;37611;51.794;21.590;2023-12-20T12:22:59;98839.80;;;4.71;100.00
51526;BME280;37611;51.794;21.590;2023-12-20T12:27:06;98839.60;;;4.73;100.00
51526;BME280;37611;51.794;21.590;2023-12-20T12:31:09;98842.44;;;4.74;100.00
51526;BME280;37611;51.794;21.590;2023-12-20T12:35:15;98840.89;;;4.75;100.00
51526;BME280;37611;51.794;21.590;2023-12-20T12:39:17;98835.50;;;4.73;100.00
51526;BME280;37611;51.794;21.590;2023-12-20T12:43:19;98825.90;;;4.70;100.00
51526;BME280;37611;51.794;21.590;2023-12-20T12:47:21;98826.45;;;4.68;100.00
51526;BME280;37611;51.794;21.590;2023-12-20T12:51:23;98826.45;;;4.67;100.00
51526;BME280;37611;51.794;21.590;2023-12-20T12:55:25;98822.17;;;4.67;100.00
51526;BME280;37611;51.794;21.590;2023-12-20T12:59:27;98818.63;;;4.66;100.00
51526;BME280;37611;51.794;21.590;2023-12-20T13:03:28;98818.10;;;4.64;100.00
51526;BME280;37611;51.794;21.590;2023-12-20T13:07:31;98822.30;;;4.65;100.00
51526;BME280;37611;51.794;21.590;2023-12-20T13:11:34;98817.33;;;4.69;100.00
51526;BME280;37611;51.794;21.590;2023-12-20T13:15:36;98830.73;;;4.64;100.00
51526;BME280;37611;51.794;21.590;2023-12-20T13:19:38;98833.24;;;4.62;100.00
51526;BME280;37611;51.794;21.590;2023-12-20T13:23:39;98837.62;;;4.59;100.00
51526;BME280;37611;51.794;21.590;2023-12-20T13:27:41;98830.56;;;4.57;100.00
51526;BME280;37611;51.794;21.590;2023-12-20T13:31:46;98835.60;;;4.51;100.00
51526;BME280;37611;51.794;21.590;2023-12-20T13:35:48;98836.35;;;4.49;100.00
51526;BME280;37611;51.794;21.590;2023-12-20T13:39:49;98825.05;;;4.45;100.00
51526;BME280;37611;51.794;21.590;2023-12-20T13:43:51;98828.86;;;4.43;100.00
51526;BME280;37611;51.794;21.590;2023-12-20T13:47:53;98829.29;;;4.39;100.00
51526;BME280;37611;51.794;21.590;2023-12-20T13:51:55;98832.72;;;4.37;100.00
51526;BME280;37611;51.794;21.590;2023-12-20T13:55:59;98825.52;;;4.36;100.00
51526;BME280;37611;51.794;21.590;2023-12-20T14:00:01;98831.11;;;4.34;100.00
51526;BME280;37611;51.794;21.590;2023-12-20T14:04:05;98833.94;;;4.30;100.00
51526;BME280;37611;51.794;21.590;2023-12-20T14:08:08;98832.09;;;4.27;100.00
51526;BME280;37611;51.794;21.590;2023-12-20T14:12:12;98825.36;;;4.23;100.00
51526;BME280;37611;51.794;21.590;2023-12-20T14:16:13;98819.50;;;4.19;100.00
51526;BME280;37611;51.794;21.590;2023-12-20T14:20:16;98814.52;;;4.16;100.00
51526;BME280;37611;51.794;21.590;2023-12-20T14:24:18;98813.52;;;4.13;100.00
51526;BME280;37611;51.794;21.590;2023-12-20T14:28:19;98812.20;;;4.08;100.00
51526;BME280;37611;51.794;21.590;2023-12-20T14:32:21;98811.40;;;4.05;100.00
51526;BME280;37611;51.794;21.590;2023-12-20T14:36:23;98810.77;;;4.03;100.00
51526;BME280;37611;51.794;21.590;2023-12-20T14:40:25;98819.45;;;3.97;100.00
51526;BME280;37611;51.794;21.590;2023-12-20T14:44:27;98824.34;;;3.92;100.00
51526;BME280;37611;51.794;21.590;2023-12-20T14:48:29;98828.63;;;3.92;100.00
51526;BME280;37611;51.794;21.590;2023-12-20T14:52:32;98831.84;;;3.92;100.00
51526;BME280;37611;51.794;21.590;2023-12-20T14:56:35;98834.19;;;3.95;100.00
51526;BME280;37611;51.794;21.590;2023-12-20T15:00:37;98842.86;;;3.97;100.00
51526;BME280;37611;51.794;21.590;2023-12-20T15:04:39;98846.44;;;3.97;100.00
51526;BME280;37611;51.794;21.590;2023-12-20T15:08:42;98840.92;;;3.95;100.00
51526;BME280;37611;51.794;21.590;2023-12-20T15:12:44;98849.25;;;4.00;100.00
51526;BME280;37611;51.794;21.590;2023-12-20T15:16:47;98847.94;;;4.02;100.00
51526;BME280;37611;51.794;21.590;2023-12-20T15:20:49;98850.65;;;4.02;100.00
51526;BME280;37611;51.794;21.590;2023-12-20T15:24:51;98850.56;;;4.03;100.00
51526;BME280;37611;51.794;21.590;2023-12-20T15:28:55;98850.36;;;4.02;100.00
51526;BME280;37611;51.794;21.590;2023-12-20T15:32:59;98841.34;;;4.02;100.00
51526;BME280;37611;51.794;21.590;2023-12-20T15:37:01;98835.36;;;4.03;100.00
51526;BME280;37611;51.794;21.590;2023-12-20T15:41:03;98832.32;;;4.04;100.00
51526;BME280;37611;51.794;21.590;2023-12-20T15:45:06;98831.42;;;4.02;100.00
51526;BME280;37611;51.794;21.590;2023-12-20T15:49:08;98826.85;;;4.03;100.00
51526;BME280;37611;51.794;21.590;2023-12-20T15:53:12;98820.77;;;4.00;100.00
51526;BME280;37611;51.794;21.590;2023-12-20T15:57:14;98820.16;;;3.99;100.00
51526;BME280;37611;51.794;21.590;2023-12-20T16:01:18;98819.00;;;3.98;100.00
51526;BME280;37611;51.794;21.590;2023-12-20T16:05:20;98813.88;;;3.97;100.00
51526;BME280;37611;51.794;21.590;2023-12-20T16:09:22;98810.44;;;3.99;100.00
51526;BME280;37611;51.794;21.590;2023-12-20T16:13:24;98804.70;;;3.99;100.00
51526;BME280;37611;51.794;21.590;2023-12-20T16:17:25;98805.40;;;3.99;100.00
51526;BME280;37611;51.794;21.590;2023-12-20T16:21:27;98811.14;;;3.99;100.00
51526;BME280;37611;51.794;21.590;2023-12-20T16:25:29;98807.81;;;4.01;100.00
51526;BME280;37611;51.794;21.590;2023-12-20T16:29:31;98805.66;;;4.00;100.00
51526;BME280;37611;51.794;21.590;2023-12-20T16:33:32;98802.88;;;4.00;100.00
51526;BME280;37611;51.794;21.590;2023-12-20T16:37:34;98799.66;;;4.01;100.00
51526;BME280;37611;51.794;21.590;2023-12-20T16:41:39;98800.46;;;4.00;100.00
51526;BME280;37611;51.794;21.590;2023-12-20T16:45:42;98797.71;;;3.98;100.00
51526;BME280;37611;51.794;21.590;2023-12-20T16:49:46;98793.09;;;3.96;100.00
51526;BME280;37611;51.794;21.590;2023-12-20T16:53:48;98800.88;;;3.93;100.00
51526;BME280;37611;51.794;21.590;2023-12-20T16:57:50;98802.04;;;3.92;100.00
51526;BME280;37611;51.794;21.590;2023-12-20T17:01:52;98800.37;;;3.91;100.00
51526;BME280;37611;51.794;21.590;2023-12-20T17:05:54;98808.85;;;3.91;100.00
51526;BME280;37611;51.794;21.590;2023-12-20T17:09:56;98802.64;;;3.91;100.00
51526;BME280;37611;51.794;21.590;2023-12-20T17:13:58;98804.85;;;3.89;100.00
51526;BME280;37611;51.794;21.590;2023-12-20T17:17:59;98801.83;;;3.87;100.00
51526;BME280;37611;51.794;21.590;2023-12-20T17:22:03;98796.57;;;3.85;100.00
51526;BME280;37611;51.794;21.590;2023-12-20T17:26:05;98790.73;;;3.81;100.00
51526;BME280;37611;51.794;21.590;2023-12-20T17:30:08;98779.29;;;3.78;100.00
51526;BME280;37611;51.794;21.590;2023-12-20T17:34:10;98767.16;;;3.77;100.00
51526;BME280;37611;51.794;21.590;2023-12-20T17:38:14;98760.83;;;3.75;100.00
51526;BME280;37611;51.794;21.590;2023-12-20T17:42:16;98758.85;;;3.68;100.00
51526;BME280;37611;51.794;21.590;2023-12-20T17:46:18;98764.97;;;3.63;100.00
51526;BME280;37611;51.794;21.590;2023-12-20T17:50:23;98768.98;;;3.61;100.00
51526;BME280;37611;51.794;21.590;2023-12-20T17:54:25;98764.34;;;3.61;100.00
51526;BME280;37611;51.794;21.590;2023-12-20T17:58:28;98768.94;;;3.64;100.00
51526;BME280;37611;51.794;21.590;2023-12-20T18:02:30;98761.83;;;3.66;100.00
51526;BME280;37611;51.794;21.590;2023-12-20T18:06:31;98764.95;;;3.64;100.00
51526;BME280;37611;51.794;21.590;2023-12-20T18:10:34;98759.08;;;3.62;100.00
51526;BME280;37611;51.794;21.590;2023-12-20T18:14:35;98757.02;;;3.59;100.00
51526;BME280;37611;51.794;21.590;2023-12-20T18:18:37;98750.85;;;3.55;100.00
51526;BME280;37611;51.794;21.590;2023-12-20T18:22:39;98753.72;;;3.50;100.00
51526;BME280;37611;51.794;21.590;2023-12-20T18:26:41;98752.66;;;3.46;100.00
51526;BME280;37611;51.794;21.590;2023-12-20T18:30:43;98751.79;;;3.42;100.00
51526;BME280;37611;51.794;21.590;2023-12-20T18:34:46;98751.62;;;3.41;100.00
51526;BME280;37611;51.794;21.590;2023-12-20T18:38:47;98746.05;;;3.39;100.00
51526;BME280;37611;51.794;21.590;2023-12-20T18:42:49;98739.36;;;3.40;100.00
51526;BME280;37611;51.794;21.590;2023-12-20T18:46:51;98732.09;;;3.44;100.00
51526;BME280;37611;51.794;21.590;2023-12-20T18:50:53;98732.48;;;3.46;100.00
51526;BME280;37611;51.794;21.590;2023-12-20T18:54:54;98733.98;;;3.48;100.00
51526;BME280;37611;51.794;21.590;2023-12-20T18:58:56;98736.63;;;3.52;100.00
51526;BME280;37611;51.794;21.590;2023-12-20T19:02:58;98730.44;;;3.53;100.00
51526;BME280;37611;51.794;21.590;2023-12-20T19:07:00;98722.40;;;3.54;100.00
51526;BME280;37611;51.794;21.590;2023-12-20T19:11:02;98727.35;;;3.51;100.00
51526;BME280;37611;51.794;21.590;2023-12-20T19:15:05;98717.33;;;3.51;100.00
51526;BME280;37611;51.794;21.590;2023-12-20T19:19:06;98724.17;;;3.49;100.00
51526;BME280;37611;51.794;21.590;2023-12-20T19:23:08;98723.12;;;3.48;100.00
51526;BME280;37611;51.794;21.590;2023-12-20T19:27:10;98713.39;;;3.50;100.00
51526;BME280;37611;51.794;21.590;2023-12-20T19:31:13;98717.19;;;3.48;100.00
51526;BME280;37611;51.794;21.590;2023-12-20T19:35:16;98710.85;;;3.49;100.00
51526;BME280;37611;51.794;21.590;2023-12-20T19:39:18;98711.67;;;3.52;100.00
51526;BME280;37611;51.794;21.590;2023-12-20T19:43:20;98710.57;;;3.53;100.00
51526;BME280;37611;51.794;21.590;2023-12-20T19:47:22;98702.27;;;3.52;100.00
51526;BME280;37611;51.794;21.590;2023-12-20T19:51:23;98696.80;;;3.54;100.00
51526;BME280;37611;51.794;21.590;2023-12-20T19:55:26;98690.20;;;3.54;100.00
51526;BME280;37611;51.794;21.590;2023-12-20T19:59:29;98689.77;;;3.55;100.00
51526;BME280;37611;51.794;21.590;2023-12-20T20:03:31;98686.61;;;3.56;100.00
51526;BME280;37611;51.794;21.590;2023-12-20T20:07:33;98688.25;;;3.58;100.00
51526;BME280;37611;51.794;21.590;2023-12-20T20:11:34;98689.98;;;3.60;100.00
51526;BME280;37611;51.794;21.590;2023-12-20T20:15:36;98688.96;;;3.61;100.00
51526;BME280;37611;51.794;21.590;2023-12-20T20:19:38;98682.73;;;3.63;100.00
51526;BME280;37611;51.794;21.590;2023-12-20T20:23:40;98680.40;;;3.68;100.00
51526;BME280;37611;51.794;21.590;2023-12-20T20:27:42;98674.57;;;3.69;100.00
51526;BME280;37611;51.794;21.590;2023-12-20T20:31:43;98682.89;;;3.77;100.00
51526;BME280;37611;51.794;21.590;2023-12-20T20:35:45;98693.70;;;3.82;100.00
51526;BME280;37611;51.794;21.590;2023-12-20T20:39:47;98717.91;;;3.86;100.00
51526;BME280;37611;51.794;21.590;2023-12-20T20:43:49;98759.73;;;3.81;100.00
51526;BME280;37611;51.794;21.590;2023-12-20T20:47:51;98763.12;;;3.28;100.00
51526;BME280;37611;51.794;21.590;2023-12-20T20:51:53;98765.66;;;2.85;100.00
51526;BME280;37611;51.794;21.590;2023-12-20T20:55:55;98746.45;;;2.64;100.00
51526;BME280;37611;51.794;21.590;2023-12-20T20:59:57;98743.02;;;2.54;100.00
51526;BME280;37611;51.794;21.590;2023-12-20T21:03:59;98735.89;;;2.44;100.00
51526;BME280;37611;51.794;21.590;2023-12-20T21:08:00;98734.27;;;2.39;100.00
51526;BME280;37611;51.794;21.590;2023-12-20T21:12:02;98733.21;;;2.37;100.00
51526;BME280;37611;51.794;21.590;2023-12-20T21:16:04;98739.21;;;2.40;100.00